sensor_id;sensor_type;location;lat;lon;timestamp;pressure;altitude;pressure_sealevel;temperature;humidity
5954;BME280;3002;42.642;24.812;2022-12-20T00:01:36;98476.09;;;1.85;90.15
5954;BME280;3002;42.642;24.812;2022-12-20T00:04:03;98493.16;;;1.97;88.91
5954;BME280;3002;42.642;24.812;2022-12-20T00:06:34;98479.56;;;2.30;86.53
5954;BME280;3002;42.642;24.812;2022-12-20T00:09:01;98537.88;;;2.36;85.27
5954;BME280;3002;42.642;24.812;2022-12-20T00:11:28;98523.91;;;2.28;86.01
5954;BME280;3002;42.642;24.812;2022-12-20T00:13:54;98537.78;;;2.00;86.14
5954;BME280;3002;42.642;24.812;2022-12-20T00:16:39;98536.72;;;2.75;83.68
5954;BME280;3002;42.642;24.812;2022-12-20T00:19:06;98515.63;;;2.01;84.31
5954;BME280;3002;42.642;24.812;2022-12-20T00:21:33;98491.63;;;2.18;84.58
5954;BME280;3002;42.642;24.812;2022-12-20T00:23:59;98490.81;;;2.68;81.81
5954;BME280;3002;42.642;24.812;2022-12-20T00:26:27;63789.69;;;-144.75;100.00
5954;BME280;3002;42.642;24.812;2022-12-20T00:28:54;63789.69;;;-144.75;100.00
5954;BME280;3002;42.642;24.812;2022-12-20T00:31:21;98490.81;;;2.68;81.81
5954;BME280;3002;42.642;24.812;2022-12-20T00:33:48;98535.47;;;2.56;83.45
5954;BME280;3002;42.642;24.812;2022-12-20T00:36:15;98529.47;;;2.48;84.80
5954;BME280;3002;42.642;24.812;2022-12-20T00:38:43;98532.91;;;2.78;82.47
5954;BME280;3002;42.642;24.812;2022-12-20T00:41:13;98508.38;;;2.54;84.00
5954;BME280;3002;42.642;24.812;2022-12-20T00:43:39;98540.84;;;2.78;83.15
5954;BME280;3002;42.642;24.812;2022-12-20T00:46:06;98491.63;;;1.88;84.63
5954;BME280;3002;42.642;24.812;2022-12-20T00:48:33;98530.84;;;2.44;86.19
5954;BME280;3002;42.642;24.812;2022-12-20T00:51:08;98527.72;;;2.55;84.22
5954;BME280;3002;42.642;24.812;2022-12-20T00:53:35;98515.41;;;2.32;85.82
5954;BME280;3002;42.642;24.812;2022-12-20T00:56:02;98507.50;;;2.18;87.03
5954;BME280;3002;42.642;24.812;2022-12-20T00:58:28;98524.31;;;2.10;86.41
5954;BME280;3002;42.642;24.812;2022-12-20T01:00:54;98517.25;;;2.32;85.10
5954;BME280;3002;42.642;24.812;2022-12-20T01:03:20;98445.16;;;1.85;86.04
5954;BME280;3002;42.642;24.812;2022-12-20T01:06:00;98492.84;;;1.48;90.40
5954;BME280;3002;42.642;24.812;2022-12-20T01:08:27;98510.28;;;1.72;91.92
5954;BME280;3002;42.642;24.812;2022-12-20T01:11:01;98496.78;;;1.67;93.54
5954;BME280;3002;42.642;24.812;2022-12-20T01:13:27;98516.09;;;1.52;95.39
5954;BME280;3002;42.642;24.812;2022-12-20T01:15:53;98489.75;;;1.21;95.93
5954;BME280;3002;42.642;24.812;2022-12-20T01:18:18;98493.06;;;1.76;92.56
5954;BME280;3002;42.642;24.812;2022-12-20T01:20:44;98451.63;;;1.53;92.67
5954;BME280;3002;42.642;24.812;2022-12-20T01:23:09;98454.31;;;1.68;87.30
5954;BME280;3002;42.642;24.812;2022-12-20T01:25:35;98465.88;;;1.15;90.81
5954;BME280;3002;42.642;24.812;2022-12-20T01:28:00;98495.72;;;1.91;91.24
5954;BME280;3002;42.642;24.812;2022-12-20T01:30:26;98482.47;;;1.61;89.64
5954;BME280;3002;42.642;24.812;2022-12-20T01:32:51;98465.81;;;1.75;88.84
5954;BME280;3002;42.642;24.812;2022-12-20T01:35:17;98489.78;;;1.88;89.47
5954;BME280;3002;42.642;24.812;2022-12-20T01:37:42;98469.75;;;1.42;91.55
5954;BME280;3002;42.642;24.812;2022-12-20T01:40:08;98498.00;;;1.94;91.86
5954;BME280;3002;42.642;24.812;2022-12-20T01:42:35;98439.03;;;1.41;92.71
5954;BME280;3002;42.642;24.812;2022-12-20T01:45:01;98468.22;;;1.47;95.91
5954;BME280;3002;42.642;24.812;2022-12-20T01:47:29;98469.44;;;1.89;94.32
5954;BME280;3002;42.642;24.812;2022-12-20T01:49:57;98459.59;;;1.83;93.79
5954;BME280;3002;42.642;24.812;2022-12-20T01:52:33;98458.31;;;1.64;96.37
5954;BME280;3002;42.642;24.812;2022-12-20T01:55:23;98454.09;;;1.55;97.55
5954;BME280;3002;42.642;24.812;2022-12-20T01:58:11;98446.16;;;1.40;97.74
5954;BME280;3002;42.642;24.812;2022-12-20T02:00:37;98395.28;;;0.86;98.57
5954;BME280;3002;42.642;24.812;2022-12-20T02:03:07;98430.72;;;1.29;99.33
5954;BME280;3002;42.642;24.812;2022-12-20T02:05:35;98452.34;;;1.47;100.00
5954;BME280;3002;42.642;24.812;2022-12-20T02:08:02;98445.44;;;1.61;100.00
5954;BME280;3002;42.642;24.812;2022-12-20T02:11:03;98414.06;;;1.43;100.00
5954;BME280;3002;42.642;24.812;2022-12-20T02:13:47;98426.06;;;1.31;100.00
5954;BME280;3002;42.642;24.812;2022-12-20T02:16:24;98434.44;;;1.20;100.00
5954;BME280;3002;42.642;24.812;2022-12-20T02:19:09;98384.13;;;1.13;100.00
5954;BME280;3002;42.642;24.812;2022-12-20T02:21:42;98397.66;;;0.95;100.00
5954;BME280;3002;42.642;24.812;2022-12-20T02:24:33;98425.19;;;1.01;100.00
5954;BME280;3002;42.642;24.812;2022-12-20T02:27:27;98411.81;;;1.02;100.00
5954;BME280;3002;42.642;24.812;2022-12-20T02:33:03;98420.03;;;0.85;100.00
5954;BME280;3002;42.642;24.812;2022-12-20T02:35:32;98420.91;;;0.77;100.00
5954;BME280;3002;42.642;24.812;2022-12-20T02:38:01;98366.06;;;0.41;100.00
5954;BME280;3002;42.642;24.812;2022-12-20T02:40:33;98408.06;;;0.74;100.00
5954;BME280;3002;42.642;24.812;2022-12-20T02:43:03;98360.06;;;0.70;100.00
5954;BME280;3002;42.642;24.812;2022-12-20T02:45:51;98370.09;;;0.75;100.00
5954;BME280;3002;42.642;24.812;2022-12-20T02:48:17;98409.47;;;0.85;100.00
5954;BME280;3002;42.642;24.812;2022-12-20T02:51:03;98404.63;;;0.73;100.00
5954;BME280;3002;42.642;24.812;2022-12-20T02:53:31;98369.28;;;0.51;100.00
5954;BME280;3002;42.642;24.812;2022-12-20T02:56:21;98372.41;;;0.55;100.00
5954;BME280;3002;42.642;24.812;2022-12-20T02:59:00;98377.72;;;0.47;100.00
5954;BME280;3002;42.642;24.812;2022-12-20T03:01:30;98406.97;;;0.68;100.00
5954;BME280;3002;42.642;24.812;2022-12-20T03:03:58;98351.06;;;0.19;100.00
5954;BME280;3002;42.642;24.812;2022-12-20T03:06:28;98360.78;;;0.41;100.00
5954;BME280;3002;42.642;24.812;2022-12-20T03:08:55;98351.81;;;0.28;100.00
5954;BME280;3002;42.642;24.812;2022-12-20T03:11:20;63789.69;;;-144.75;100.00
5954;BME280;3002;42.642;24.812;2022-12-20T03:13:46;98361.59;;;0.42;100.00
5954;BME280;3002;42.642;24.812;2022-12-20T03:16:11;98362.03;;;0.31;100.00
5954;BME280;3002;42.642;24.812;2022-12-20T03:18:37;98379.25;;;0.41;100.00
5954;BME280;3002;42.642;24.812;2022-12-20T03:21:12;98345.66;;;0.35;100.00
5954;BME280;3002;42.642;24.812;2022-12-20T03:23:37;98351.53;;;0.45;100.00
5954;BME280;3002;42.642;24.812;2022-12-20T03:26:03;98385.94;;;0.52;100.00
5954;BME280;3002;42.642;24.812;2022-12-20T03:28:28;98388.94;;;0.49;100.00
5954;BME280;3002;42.642;24.812;2022-12-20T03:30:54;98378.13;;;0.36;100.00
5954;BME280;3002;42.642;24.812;2022-12-20T03:33:19;98371.09;;;0.28;100.00
5954;BME280;3002;42.642;24.812;2022-12-20T03:35:46;98394.22;;;0.49;100.00
5954;BME280;3002;42.642;24.812;2022-12-20T03:38:11;98343.19;;;0.34;100.00
5954;BME280;3002;42.642;24.812;2022-12-20T03:40:37;98404.25;;;0.53;100.00
5954;BME280;3002;42.642;24.812;2022-12-20T03:43:02;98380.97;;;0.03;100.00
5954;BME280;3002;42.642;24.812;2022-12-20T03:45:28;98345.16;;;0.09;100.00
5954;BME280;3002;42.642;24.812;2022-12-20T03:47:54;98336.56;;;0.15;100.00
5954;BME280;3002;42.642;24.812;2022-12-20T03:50:20;98374.78;;;0.42;100.00
5954;BME280;3002;42.642;24.812;2022-12-20T03:52:45;98377.44;;;0.19;100.00
5954;BME280;3002;42.642;24.812;2022-12-20T03:55:11;98354.91;;;-0.23;100.00
5954;BME280;3002;42.642;24.812;2022-12-20T03:57:38;98388.56;;;0.06;100.00
5954;BME280;3002;42.642;24.812;2022-12-20T04:00:05;98389.00;;;0.10;100.00
5954;BME280;3002;42.642;24.812;2022-12-20T04:02:30;98357.22;;;-0.28;100.00
5954;BME280;3002;42.642;24.812;2022-12-20T04:04:56;98343.63;;;-0.09;100.00
5954;BME280;3002;42.642;24.812;2022-12-20T04:07:27;98387.16;;;0.41;100.00
5954;BME280;3002;42.642;24.812;2022-12-20T04:09:52;98390.50;;;0.35;100.00
5954;BME280;3002;42.642;24.812;2022-12-20T04:12:18;98402.94;;;0.26;100.00
5954;BME280;3002;42.642;24.812;2022-12-20T04:14:43;98356.72;;;0.08;100.00
5954;BME280;3002;42.642;24.812;2022-12-20T04:17:09;98386.16;;;0.19;100.00
5954;BME280;3002;42.642;24.812;2022-12-20T04:19:35;98363.06;;;-0.10;100.00
5954;BME280;3002;42.642;24.812;2022-12-20T04:22:00;98393.38;;;-0.06;100.00
5954;BME280;3002;42.642;24.812;2022-12-20T04:24:26;98391.03;;;-0.01;100.00
5954;BME280;3002;42.642;24.812;2022-12-20T04:26:51;98352.16;;;-0.07;100.00
5954;BME280;3002;42.642;24.812;2022-12-20T04:29:17;98369.13;;;-0.01;100.00
5954;BME280;3002;42.642;24.812;2022-12-20T04:31:42;98405.31;;;0.13;100.00
5954;BME280;3002;42.642;24.812;2022-12-20T04:34:08;98389.91;;;-0.06;100.00
5954;BME280;3002;42.642;24.812;2022-12-20T04:36:33;98417.97;;;0.18;100.00
5954;BME280;3002;42.642;24.812;2022-12-20T04:38:59;98392.91;;;-0.09;100.00
5954;BME280;3002;42.642;24.812;2022-12-20T04:41:24;98378.41;;;-0.13;100.00
5954;BME280;3002;42.642;24.812;2022-12-20T04:43:54;98410.41;;;0.15;100.00
5954;BME280;3002;42.642;24.812;2022-12-20T04:46:21;98415.69;;;0.15;100.00
5954;BME280;3002;42.642;24.812;2022-12-20T04:48:47;98373.50;;;-0.16;100.00
5954;BME280;3002;42.642;24.812;2022-12-20T04:51:13;98384.81;;;-0.08;100.00
5954;BME280;3002;42.642;24.812;2022-12-20T04:53:39;98390.00;;;0.09;100.00
5954;BME280;3002;42.642;24.812;2022-12-20T04:56:19;98402.16;;;0.18;100.00
5954;BME280;3002;42.642;24.812;2022-12-20T04:58:47;98370.03;;;-0.25;100.00
5954;BME280;3002;42.642;24.812;2022-12-20T05:01:13;98406.00;;;-0.32;100.00
5954;BME280;3002;42.642;24.812;2022-12-20T05:03:39;98396.97;;;-0.38;100.00
5954;BME280;3002;42.642;24.812;2022-12-20T05:06:05;98361.38;;;-0.34;100.00
5954;BME280;3002;42.642;24.812;2022-12-20T05:08:31;98414.06;;;0.06;100.00
5954;BME280;3002;42.642;24.812;2022-12-20T05:10:57;98365.31;;;-0.30;100.00
5954;BME280;3002;42.642;24.812;2022-12-20T05:13:22;98371.13;;;-0.50;100.00
5954;BME280;3002;42.642;24.812;2022-12-20T05:15:52;98381.72;;;-0.19;100.00
5954;BME280;3002;42.642;24.812;2022-12-20T05:18:18;98397.31;;;-0.02;100.00
5954;BME280;3002;42.642;24.812;2022-12-20T05:20:44;98355.97;;;-0.40;100.00
5954;BME280;3002;42.642;24.812;2022-12-20T05:23:10;98401.56;;;0.08;100.00
5954;BME280;3002;42.642;24.812;2022-12-20T05:25:54;98406.19;;;0.37;100.00
5954;BME280;3002;42.642;24.812;2022-12-20T05:28:38;98399.91;;;0.07;100.00
5954;BME280;3002;42.642;24.812;2022-12-20T05:31:04;98394.72;;;-0.10;100.00
5954;BME280;3002;42.642;24.812;2022-12-20T05:33:39;98397.53;;;-0.11;100.00
5954;BME280;3002;42.642;24.812;2022-12-20T05:36:49;98399.03;;;-0.17;100.00
5954;BME280;3002;42.642;24.812;2022-12-20T05:39:14;98402.63;;;-0.10;100.00
5954;BME280;3002;42.642;24.812;2022-12-20T05:41:41;98404.44;;;-0.10;100.00
5954;BME280;3002;42.642;24.812;2022-12-20T05:44:07;98396.16;;;0.01;100.00
5954;BME280;3002;42.642;24.812;2022-12-20T05:46:32;98397.44;;;0.05;100.00
5954;BME280;3002;42.642;24.812;2022-12-20T05:48:58;98402.13;;;-0.05;100.00
5954;BME280;3002;42.642;24.812;2022-12-20T05:51:24;98360.81;;;-0.21;100.00
5954;BME280;3002;42.642;24.812;2022-12-20T05:53:50;63789.69;;;-144.75;100.00
5954;BME280;3002;42.642;24.812;2022-12-20T05:56:15;63789.69;;;-144.75;100.00
5954;BME280;3002;42.642;24.812;2022-12-20T05:58:41;98367.34;;;-0.09;100.00
5954;BME280;3002;42.642;24.812;2022-12-20T06:01:07;98407.91;;;0.21;100.00
5954;BME280;3002;42.642;24.812;2022-12-20T06:03:33;98409.41;;;0.16;100.00
5954;BME280;3002;42.642;24.812;2022-12-20T06:05:59;98363.16;;;0.05;100.00
5954;BME280;3002;42.642;24.812;2022-12-20T06:08:24;98381.94;;;0.33;100.00
5954;BME280;3002;42.642;24.812;2022-12-20T06:10:50;98347.88;;;0.23;100.00
5954;BME280;3002;42.642;24.812;2022-12-20T06:13:15;98389.16;;;0.39;100.00
5954;BME280;3002;42.642;24.812;2022-12-20T06:15:41;98387.28;;;0.25;100.00
5954;BME280;3002;42.642;24.812;2022-12-20T06:18:07;98343.16;;;0.11;100.00
5954;BME280;3002;42.642;24.812;2022-12-20T06:20:34;98378.00;;;0.60;100.00
5954;BME280;3002;42.642;24.812;2022-12-20T06:22:59;98388.16;;;0.40;100.00
5954;BME280;3002;42.642;24.812;2022-12-20T06:25:25;98358.44;;;1.66;93.92
5954;BME280;3002;42.642;24.812;2022-12-20T06:27:51;98404.75;;;4.52;74.81
5954;BME280;3002;42.642;24.812;2022-12-20T06:30:17;98389.28;;;5.02;68.54
5954;BME280;3002;42.642;24.812;2022-12-20T06:32:43;98366.53;;;5.59;63.62
5954;BME280;3002;42.642;24.812;2022-12-20T06:35:09;98402.56;;;6.33;62.58
5954;BME280;3002;42.642;24.812;2022-12-20T06:37:34;98360.75;;;7.21;59.21
5954;BME280;3002;42.642;24.812;2022-12-20T06:40:01;98412.91;;;7.42;58.11
5954;BME280;3002;42.642;24.812;2022-12-20T06:42:26;98380.88;;;7.42;57.73
5954;BME280;3002;42.642;24.812;2022-12-20T06:44:52;98422.78;;;7.42;57.27
5954;BME280;3002;42.642;24.812;2022-12-20T06:47:17;98398.16;;;7.15;57.06
5954;BME280;3002;42.642;24.812;2022-12-20T06:49:43;98384.94;;;7.88;56.29
5954;BME280;3002;42.642;24.812;2022-12-20T06:52:09;98396.50;;;8.19;55.49
5954;BME280;3002;42.642;24.812;2022-12-20T06:54:34;98374.47;;;8.72;53.05
5954;BME280;3002;42.642;24.812;2022-12-20T06:57:00;98360.16;;;8.18;54.35
5954;BME280;3002;42.642;24.812;2022-12-20T06:59:25;98391.78;;;9.34;51.21
5954;BME280;3002;42.642;24.812;2022-12-20T07:01:51;98376.22;;;10.18;51.84
5954;BME280;3002;42.642;24.812;2022-12-20T07:04:17;98404.94;;;10.87;48.91
5954;BME280;3002;42.642;24.812;2022-12-20T07:06:45;98380.41;;;7.70;53.12
5954;BME280;3002;42.642;24.812;2022-12-20T07:09:11;98372.22;;;8.39;54.69
5954;BME280;3002;42.642;24.812;2022-12-20T07:11:36;98368.75;;;7.46;54.60
5954;BME280;3002;42.642;24.812;2022-12-20T07:14:02;98348.94;;;5.51;59.08
5954;BME280;3002;42.642;24.812;2022-12-20T07:16:29;98398.34;;;6.19;61.33
5954;BME280;3002;42.642;24.812;2022-12-20T07:18:56;98359.22;;;5.34;63.42
5954;BME280;3002;42.642;24.812;2022-12-20T07:21:21;98361.88;;;6.82;59.67
5954;BME280;3002;42.642;24.812;2022-12-20T07:23:47;98350.38;;;7.57;56.45
5954;BME280;3002;42.642;24.812;2022-12-20T07:26:13;98390.28;;;8.73;53.90
5954;BME280;3002;42.642;24.812;2022-12-20T07:28:40;98350.03;;;8.20;55.48
5954;BME280;3002;42.642;24.812;2022-12-20T07:31:06;98384.50;;;9.42;52.12
5954;BME280;3002;42.642;24.812;2022-12-20T07:33:31;98352.16;;;11.26;48.04
5954;BME280;3002;42.642;24.812;2022-12-20T07:36:02;98363.06;;;11.36;46.88
5954;BME280;3002;42.642;24.812;2022-12-20T07:38:28;98341.97;;;11.45;47.34
5954;BME280;3002;42.642;24.812;2022-12-20T07:40:54;98322.78;;;11.75;45.65
5954;BME280;3002;42.642;24.812;2022-12-20T07:43:19;98325.50;;;13.00;45.22
5954;BME280;3002;42.642;24.812;2022-12-20T07:45:45;98342.72;;;12.67;42.48
5954;BME280;3002;42.642;24.812;2022-12-20T07:48:11;98322.88;;;12.51;42.27
5954;BME280;3002;42.642;24.812;2022-12-20T07:50:38;98320.56;;;13.61;41.45
5954;BME280;3002;42.642;24.812;2022-12-20T07:53:05;98297.78;;;13.36;40.26
5954;BME280;3002;42.642;24.812;2022-12-20T07:55:32;98307.31;;;14.07;39.13
5954;BME280;3002;42.642;24.812;2022-12-20T07:58:02;98317.66;;;13.30;40.91
5954;BME280;3002;42.642;24.812;2022-12-20T08:00:30;98309.06;;;13.01;41.75
5954;BME280;3002;42.642;24.812;2022-12-20T08:02:57;98330.81;;;13.22;41.38
5954;BME280;3002;42.642;24.812;2022-12-20T08:05:25;98333.47;;;11.70;44.91
5954;BME280;3002;42.642;24.812;2022-12-20T08:07:53;98303.72;;;10.54;47.17
5954;BME280;3002;42.642;24.812;2022-12-20T08:10:20;98336.63;;;10.49;47.32
5954;BME280;3002;42.642;24.812;2022-12-20T08:12:47;98318.28;;;9.89;47.17
5954;BME280;3002;42.642;24.812;2022-12-20T08:15:13;98326.75;;;10.09;47.43
5954;BME280;3002;42.642;24.812;2022-12-20T08:17:39;98296.09;;;10.79;48.15
5954;BME280;3002;42.642;24.812;2022-12-20T08:20:05;98344.97;;;9.96;50.00
5954;BME280;3002;42.642;24.812;2022-12-20T08:22:33;98331.97;;;9.52;50.11
5954;BME280;3002;42.642;24.812;2022-12-20T08:24:59;98334.91;;;10.88;48.48
5954;BME280;3002;42.642;24.812;2022-12-20T08:27:25;98327.75;;;10.20;48.15
5954;BME280;3002;42.642;24.812;2022-12-20T08:29:50;98352.75;;;11.11;48.23
5954;BME280;3002;42.642;24.812;2022-12-20T08:32:16;98315.72;;;10.96;47.29
5954;BME280;3002;42.642;24.812;2022-12-20T08:34:41;98312.88;;;11.97;46.88
5954;BME280;3002;42.642;24.812;2022-12-20T08:37:07;98330.97;;;13.10;44.53
5954;BME280;3002;42.642;24.812;2022-12-20T08:39:33;98328.84;;;13.91;43.00
5954;BME280;3002;42.642;24.812;2022-12-20T08:41:58;98344.38;;;13.79;43.42
5954;BME280;3002;42.642;24.812;2022-12-20T08:44:24;98324.50;;;14.63;40.72
5954;BME280;3002;42.642;24.812;2022-12-20T08:46:49;98296.56;;;12.85;45.02
5954;BME280;3002;42.642;24.812;2022-12-20T08:49:15;98298.88;;;13.41;43.41
5954;BME280;3002;42.642;24.812;2022-12-20T08:51:40;98291.28;;;13.85;43.35
5954;BME280;3002;42.642;24.812;2022-12-20T08:54:06;98291.66;;;14.04;42.75
5954;BME280;3002;42.642;24.812;2022-12-20T08:56:32;98265.88;;;14.49;41.49
5954;BME280;3002;42.642;24.812;2022-12-20T08:58:58;98281.19;;;14.17;40.00
5954;BME280;3002;42.642;24.812;2022-12-20T09:01:23;98287.66;;;14.22;41.93
5954;BME280;3002;42.642;24.812;2022-12-20T09:03:50;98283.03;;;14.12;40.91
5954;BME280;3002;42.642;24.812;2022-12-20T09:06:18;98288.91;;;13.93;40.98
5954;BME280;3002;42.642;24.812;2022-12-20T09:08:45;98277.94;;;14.20;40.70
5954;BME280;3002;42.642;24.812;2022-12-20T09:13:41;98267.91;;;13.06;43.13
5954;BME280;3002;42.642;24.812;2022-12-20T09:16:08;98264.31;;;14.93;38.72
5954;BME280;3002;42.642;24.812;2022-12-20T09:18:34;98232.44;;;14.65;39.03
5954;BME280;3002;42.642;24.812;2022-12-20T09:21:01;98248.88;;;12.21;42.75
5954;BME280;3002;42.642;24.812;2022-12-20T09:23:28;98228.88;;;13.51;41.08
5954;BME280;3002;42.642;24.812;2022-12-20T09:25:54;98213.75;;;13.45;39.45
5954;BME280;3002;42.642;24.812;2022-12-20T09:28:20;98225.75;;;12.84;41.34
5954;BME280;3002;42.642;24.812;2022-12-20T09:30:45;98222.34;;;13.42;40.00
5954;BME280;3002;42.642;24.812;2022-12-20T09:33:11;98222.69;;;14.69;37.29
5954;BME280;3002;42.642;24.812;2022-12-20T09:35:43;98237.19;;;15.29;36.22
5954;BME280;3002;42.642;24.812;2022-12-20T09:38:12;98227.25;;;15.19;35.19
5954;BME280;3002;42.642;24.812;2022-12-20T09:40:44;98211.78;;;13.92;35.86
5954;BME280;3002;42.642;24.812;2022-12-20T09:43:12;98202.25;;;13.64;37.17
5954;BME280;3002;42.642;24.812;2022-12-20T09:45:39;98213.88;;;15.59;36.07
5954;BME280;3002;42.642;24.812;2022-12-20T09:48:09;98193.88;;;15.60;33.93
5954;BME280;3002;42.642;24.812;2022-12-20T09:50:57;98210.00;;;15.85;35.03
5954;BME280;3002;42.642;24.812;2022-12-20T09:56:05;98195.59;;;16.39;31.72
5954;BME280;3002;42.642;24.812;2022-12-20T10:01:19;98195.88;;;15.98;33.89
5954;BME280;3002;42.642;24.812;2022-12-20T10:03:45;98144.03;;;16.20;32.12
5954;BME280;3002;42.642;24.812;2022-12-20T10:06:40;98161.38;;;15.70;33.99
5954;BME280;3002;42.642;24.812;2022-12-20T10:14:54;98167.47;;;16.35;32.12
5954;BME280;3002;42.642;24.812;2022-12-20T10:20:21;98150.13;;;16.99;32.00
5954;BME280;3002;42.642;24.812;2022-12-20T10:22:59;98154.88;;;17.79;31.60
5954;BME280;3002;42.642;24.812;2022-12-20T10:25:32;98143.13;;;16.64;34.51
5954;BME280;3002;42.642;24.812;2022-12-20T10:28:01;98126.91;;;16.30;34.22
5954;BME280;3002;42.642;24.812;2022-12-20T10:30:31;98094.59;;;16.44;32.32
5954;BME280;3002;42.642;24.812;2022-12-20T10:32:57;98117.66;;;14.67;35.30
5954;BME280;3002;42.642;24.812;2022-12-20T10:35:27;98122.16;;;16.46;33.49
5954;BME280;3002;42.642;24.812;2022-12-20T10:38:10;98118.78;;;16.59;32.44
5954;BME280;3002;42.642;24.812;2022-12-20T10:43:16;98110.81;;;16.44;34.27
5954;BME280;3002;42.642;24.812;2022-12-20T10:45:45;98106.53;;;14.89;35.81
5954;BME280;3002;42.642;24.812;2022-12-20T10:48:33;98107.97;;;16.59;33.42
5954;BME280;3002;42.642;24.812;2022-12-20T10:53:52;98097.78;;;17.04;32.93
5954;BME280;3002;42.642;24.812;2022-12-20T10:56:25;98094.22;;;16.21;34.41
5954;BME280;3002;42.642;24.812;2022-12-20T10:58:59;98092.75;;;16.00;33.11
5954;BME280;3002;42.642;24.812;2022-12-20T11:01:31;98088.41;;;16.38;32.68
5954;BME280;3002;42.642;24.812;2022-12-20T11:04:06;98048.34;;;15.72;33.63
5954;BME280;3002;42.642;24.812;2022-12-20T11:06:45;98064.34;;;15.53;34.35
5954;BME280;3002;42.642;24.812;2022-12-20T11:09:26;98065.97;;;13.16;38.37
5954;BME280;3002;42.642;24.812;2022-12-20T11:12:03;98070.44;;;14.09;37.46
5954;BME280;3002;42.642;24.812;2022-12-20T11:14:32;98070.06;;;15.51;35.67
5954;BME280;3002;42.642;24.812;2022-12-20T11:16:59;98037.84;;;15.65;34.91
5954;BME280;3002;42.642;24.812;2022-12-20T11:25:43;98046.72;;;14.47;37.44
5954;BME280;3002;42.642;24.812;2022-12-20T11:28:37;98039.63;;;14.76;37.02
5954;BME280;3002;42.642;24.812;2022-12-20T11:31:29;98029.06;;;14.80;36.28
5954;BME280;3002;42.642;24.812;2022-12-20T11:37:20;98013.19;;;16.30;34.17
5954;BME280;3002;42.642;24.812;2022-12-20T11:48:54;97991.75;;;15.36;33.97
5954;BME280;3002;42.642;24.812;2022-12-20T11:51:44;97996.34;;;16.62;33.66
5954;BME280;3002;42.642;24.812;2022-12-20T11:56:41;97987.09;;;17.30;33.48
5954;BME280;3002;42.642;24.812;2022-12-20T12:01:47;97971.84;;;18.04;32.13
5954;BME280;3002;42.642;24.812;2022-12-20T12:04:20;97973.91;;;18.95;31.06
5954;BME280;3002;42.642;24.812;2022-12-20T12:06:56;97968.47;;;18.26;31.44
5954;BME280;3002;42.642;24.812;2022-12-20T12:09:31;97951.84;;;19.10;29.82
5954;BME280;3002;42.642;24.812;2022-12-20T12:17:07;97944.56;;;17.44;31.86
5954;BME280;3002;42.642;24.812;2022-12-20T12:19:36;97975.25;;;16.59;33.81
5954;BME280;3002;42.642;24.812;2022-12-20T12:22:10;97935.78;;;18.45;30.98
5954;BME280;3002;42.642;24.812;2022-12-20T12:24:42;97937.41;;;19.23;30.17
5954;BME280;3002;42.642;24.812;2022-12-20T12:27:19;97962.59;;;17.73;31.88
5954;BME280;3002;42.642;24.812;2022-12-20T12:29:45;97947.59;;;17.24;32.76
5954;BME280;3002;42.642;24.812;2022-12-20T12:32:36;97948.53;;;17.33;32.65
5954;BME280;3002;42.642;24.812;2022-12-20T12:41:19;97936.25;;;18.06;32.11
5954;BME280;3002;42.642;24.812;2022-12-20T12:43:53;97912.03;;;18.09;31.25
5954;BME280;3002;42.642;24.812;2022-12-20T12:46:25;97943.94;;;17.33;32.38
5954;BME280;3002;42.642;24.812;2022-12-20T12:49:03;97932.72;;;17.02;32.17
5954;BME280;3002;42.642;24.812;2022-12-20T12:51:34;97931.94;;;15.82;34.31
5954;BME280;3002;42.642;24.812;2022-12-20T12:56:39;97949.97;;;15.92;34.38
5954;BME280;3002;42.642;24.812;2022-12-20T13:01:54;97945.56;;;17.34;32.38
5954;BME280;3002;42.642;24.812;2022-12-20T13:04:28;97929.72;;;16.37;33.59
5954;BME280;3002;42.642;24.812;2022-12-20T13:06:57;97914.81;;;18.04;32.02
5954;BME280;3002;42.642;24.812;2022-12-20T13:11:50;97946.97;;;18.71;30.76
5954;BME280;3002;42.642;24.812;2022-12-20T13:16:46;97927.16;;;16.51;32.87
5954;BME280;3002;42.642;24.812;2022-12-20T13:21:46;97911.34;;;18.45;30.56
5954;BME280;3002;42.642;24.812;2022-12-20T13:24:38;97937.59;;;18.36;31.10
5954;BME280;3002;42.642;24.812;2022-12-20T13:27:34;97935.69;;;18.78;30.66
5954;BME280;3002;42.642;24.812;2022-12-20T13:30:22;97935.69;;;17.76;31.71
5954;BME280;3002;42.642;24.812;2022-12-20T13:40:58;97938.69;;;18.76;30.62
5954;BME280;3002;42.642;24.812;2022-12-20T13:43:27;97932.16;;;18.63;29.87
5954;BME280;3002;42.642;24.812;2022-12-20T13:51:15;97926.78;;;17.38;31.81
5954;BME280;3002;42.642;24.812;2022-12-20T13:53:58;97910.78;;;17.55;31.55
5954;BME280;3002;42.642;24.812;2022-12-20T13:59:06;97937.72;;;14.22;36.59
5954;BME280;3002;42.642;24.812;2022-12-20T14:01:46;97925.25;;;16.51;33.48
5954;BME280;3002;42.642;24.812;2022-12-20T14:04:13;97930.00;;;17.91;31.56
5954;BME280;3002;42.642;24.812;2022-12-20T14:06:49;97924.25;;;17.93;31.38
5954;BME280;3002;42.642;24.812;2022-12-20T14:09:34;97909.72;;;16.38;33.46
5954;BME280;3002;42.642;24.812;2022-12-20T14:12:12;97915.28;;;15.99;33.54
5954;BME280;3002;42.642;24.812;2022-12-20T14:14:48;97914.56;;;15.88;34.23
5954;BME280;3002;42.642;24.812;2022-12-20T14:17:28;97921.28;;;15.96;33.86
5954;BME280;3002;42.642;24.812;2022-12-20T14:20:14;97918.91;;;14.71;35.38
5954;BME280;3002;42.642;24.812;2022-12-20T14:25:14;97916.16;;;12.90;39.56
5954;BME280;3002;42.642;24.812;2022-12-20T14:27:41;97916.16;;;12.17;40.86
5954;BME280;3002;42.642;24.812;2022-12-20T14:30:25;97888.38;;;11.26;42.58
5954;BME280;3002;42.642;24.812;2022-12-20T14:32:51;97891.50;;;10.59;44.59
5954;BME280;3002;42.642;24.812;2022-12-20T14:35:19;97907.69;;;10.42;45.54
5954;BME280;3002;42.642;24.812;2022-12-20T14:37:55;97903.44;;;9.30;48.17
5954;BME280;3002;42.642;24.812;2022-12-20T14:40:21;97858.00;;;9.19;48.46
5954;BME280;3002;42.642;24.812;2022-12-20T14:42:47;97865.22;;;9.18;48.47
5954;BME280;3002;42.642;24.812;2022-12-20T14:47:50;97911.03;;;9.22;50.86
5954;BME280;3002;42.642;24.812;2022-12-20T14:50:32;97900.97;;;9.29;49.78
5954;BME280;3002;42.642;24.812;2022-12-20T14:52:58;97853.44;;;8.40;51.13
5954;BME280;3002;42.642;24.812;2022-12-20T14:55:36;97857.59;;;8.48;51.53
5954;BME280;3002;42.642;24.812;2022-12-20T14:58:24;97887.34;;;8.68;52.64
5954;BME280;3002;42.642;24.812;2022-12-20T15:01:17;97883.00;;;8.10;55.49